ADDS METAR Data INFO
IDs: Format: Raw Decoded Include TAF

Data at: 2059 UTC 19 Jul 2018

KMKT 192056Z AUTO 14011G19KT 10SM -RA OVC007 20/19 A2969 RMK AO2 SLP053 P0000 60001 T02000189 56011
KMKT 192008Z AUTO 12018KT 9SM -RA OVC005 19/19 A2968 RMK AO2 LTG DSNT E CIG 004V009 PRESFR P0000
KMKT 191956Z AUTO 13015KT 8SM -RA OVC007 20/19 A2970 RMK AO2 CIG 004V009 SLP054 P0001 T02000189
KMKT 191935Z AUTO 14014KT 10SM -RA OVC007 20/19 A2971 RMK AO2 LTG DSNT SW CIG 006V011 P0000
KMKT 191856Z AUTO 15014KT 10SM -RA OVC012 20/19 A2973 RMK AO2 PK WND 14030/1801 LTG DSNT SW AND W RAB36 SLP064 P0000 T02000189
KMKT 191756Z AUTO 15020G25KT 10SM BKN014 OVC022 21/18 A2972 RMK AO2 PK WND 14028/1731 SLP061 60122 T02110183 10211 20189 56023
KMKT 191656Z AUTO 14017G23KT 10SM BKN026 OVC031 20/18 A2975 RMK AO2 PK WND 15026/1606 RAE30 SLP072 P0001 T02000178
KMKT 191653Z AUTO 13019KT 10SM OVC029 19/18 A2975 RMK AO2 PK WND 15026/1606 RAE30 P0001
KMKT 191616Z AUTO 15018G23KT 10SM -RA SCT010 OVC035 19/18 A2978 RMK AO2 PK WND 15026/1606 P0001
KMKT 191556Z AUTO 15018G25KT 6SM -RA BR BKN010 BKN037 OVC045 19/18 A2979 RMK AO2 PK WND 14028/1509 TSB03E18 CIG 007V016 SLP085 P0060 T01890178 TSNO
KMKT 191532Z AUTO 15021G26KT 5SM RA BR FEW007 BKN014 OVC050 19/18 A2979 RMK AO2 PK WND 14028/1509 LTG DSNT SE TSB03E18 P0057
KMKT 191520Z AUTO 14017KT 2SM +RA BR SCT009 BKN014 OVC050 19/18 A2979 RMK AO2 PK WND 14028/1509 VIS 1V3 LTG DSNT N AND SE AND S TSB03E18 P0054
KMKT 191516Z AUTO 14017G28KT 1SM VCTS RA BR SCT010 BKN016 OVC050 19/18 A2978 RMK AO2 PK WND 14028/1509 VIS 1/2V3 LTG DSNT N AND SE AND S TSB03 P0051
KMKT 191506Z AUTO 14021G25KT 3/4SM VCTS +RA BR BKN012 OVC041 19/18 A2978 RMK AO2 LTG DSNT S AND NW TSB03 P0034
KMKT 191504Z AUTO 14021G25KT 1SM VCTS +RA BR BKN011 BKN015 OVC041 19/18 A2978 RMK AO2 LTG DSNT S AND NW TSB03 P0025
KMKT 191459Z AUTO 17011G21KT 1 3/4SM RA BR FEW009 BKN015 OVC041 19/18 A2982 RMK AO2 VIS 3/4V5 LTG DSNT S PRESRR P0003
KMKT 191456Z AUTO 15014G21KT 2SM +RA BR FEW011 BKN015 OVC043 19/18 A2980 RMK AO2 PK WND 15030/1416 VIS 3/4V5 LTG DSNT S AND SW TSB32E47 SLP089 P0024 60061 T01940183 58006
KMKT 191454Z AUTO 15017G22KT 2SM +RA BR FEW008 BKN015 OVC049 19/18 A2979 RMK AO2 PK WND 15030/1416 VIS 3/4V5 LTG DSNT S-NW TSB32E47 P0023
KMKT 191447Z AUTO 14017G22KT 5SM RA BR FEW009 BKN039 OVC047 19/18 A2978 RMK AO2 PK WND 15030/1416 LTG DSNT S-NW TSB32E47 P0015
KMKT 191438Z AUTO 14018KT 10SM -TSRA SCT013 BKN039 OVC046 20/18 A2979 RMK AO2 PK WND 15030/1416 LTG DSNT E AND SW AND W TSB32 P0013
KMKT 191428Z AUTO 13016KT 10SM SCT007 BKN027 OVC042 19/19 A2979 RMK AO2 PK WND 15030/1416 LTG DSNT SW RAE27 P0013
KMKT 191420Z AUTO 13019G30KT 8SM -RA BKN007 BKN027 OVC039 19/18 A2979 RMK AO2 PK WND 15030/1416 LTG DSNT SW CIG 003V018 P0013
KMKT 191417Z AUTO 15025G30KT 2 1/2SM -RA BR SCT005 BKN015 OVC044 19/18 A2979 RMK AO2 PK WND 15030/1416 VIS 1V5 LTG DSNT SW P0013
KMKT 191413Z AUTO 14020G28KT 1 1/2SM RA BR BKN005 BKN015 OVC025 19/19 A2979 RMK AO2 PK WND 13028/1407 VIS 1V5 LTG DSNT SW CIG 003V007 P0013
KMKT 191356Z AUTO 16014G21KT 2SM +RA BR OVC005 19/19 A2982 RMK AO2 LTG DSNT NE AND NW TSE54 CIG 004V010 SLP093 P0035 T01940189
KMKT 191354Z AUTO 16011G21KT 2SM +RA BR OVC005 19/19 A2982 RMK AO2 LTG DSNT NE AND NW TSE54 CIG 004V010 P0033
KMKT 191346Z AUTO 16013G19KT 2SM +TSRA BR OVC007 19/19 A2982 RMK AO2 VIS 1 1/4V5 LTG DSNT ALQDS CIG 004V010 P0027
KMKT 191316Z AUTO 14014KT 3SM TSRA BR OVC009 20/19 A2981 RMK AO2 LTG DSNT N AND S CIG 005V012 P0010
KMKT 191309Z AUTO 14017KT 2 1/2SM TSRA BR BKN007 OVC013 20/19 A2981 RMK AO2 VIS 2V5 LTG DSNT S CIG 005V009 P0007
KMKT 191256Z AUTO 14016G19KT 5SM TSRA BR OVC009 20/19 A2982 RMK AO2 LTG DSNT S AND NW TSB1157E04B07E12B19RAB1158E11B41 CIG 006V012 SLP095 P0002 T02000194
KMKT 191234Z AUTO 15009KT 8SM VCTS BKN009 OVC060 21/19 A2983 RMK AO2 LTG DSNT ALQDS TSB1157E04B07E12B19RAB1158E11 CIG 008V012 P0000
KMKT 191225Z AUTO 15011KT 10SM VCTS SCT011 OVC055 21/19 A2983 RMK AO2 LTG DSNT S-NW TSB1157E04B07E12B19RAB1158E11 P0000
KMKT 191218Z AUTO 15012KT 10SM FEW011 OVC055 21/19 A2983 RMK AO2 LTG DSNT S-NW TSB1157E04B07E12RAB1158E11 P0000
KMKT 191207Z AUTO 15013KT 10SM VCTS -RA SCT011 OVC055 21/19 A2982 RMK AO2 LTG DSNT S-NW TSB1157E04B07RAB1158 P0000
KMKT 191203Z AUTO 15015KT 10SM VCTS -RA FEW011 OVC055 21/19 A2982 RMK AO2 LTG DSNT S-NW TSB1157RAB1158 P0000
KMKT 191156Z AUTO 13013KT 10SM FEW012 BKN050 OVC065 21/19 A2982 RMK AO2 RAE56 SLP093 P0005 60005 70005 T02060194 10211 20200 58019 TSNO
KMKT 191056Z AUTO 16010KT 8SM -RA OVC060 21/19 A2985 RMK AO2 LTG DSNT W RAB55 SLP105 P0000 T02110189
KMKT 190956Z AUTO 14014KT 10SM BKN060 BKN070 OVC090 21/18 A2986 RMK AO2 SLP107 T02110183
KMKT 190856Z AUTO 13010KT 10SM BKN100 21/18 A2988 RMK AO2 SLP113 T02060183 56018
KMKT 190756Z AUTO 13010KT 10SM BKN070 21/18 A2989 RMK AO2 SLP119 T02060178
KMKT 190656Z AUTO 13010KT 10SM CLR 20/17 A2991 RMK AO2 SLP126 T02000172
KMKT 190556Z AUTO 13011KT 10SM CLR 21/17 A2993 RMK AO2 SLP132 T02060172 10261 20206 402720156 58012
KMKT 190456Z AUTO 13010KT 10SM CLR 21/17 A2995 RMK AO2 SLP137 T02110172
KMKT 190356Z AUTO 12008KT 10SM CLR 22/18 A2996 RMK AO2 SLP140 T02170178
KMKT 190256Z AUTO 12007KT 10SM CLR 22/18 A2997 RMK AO2 SLP144 T02220183 55005
KMKT 190156Z AUTO 12008KT 9SM CLR 23/18 A2996 RMK AO2 SLP142 T02330178
KMKT 190056Z AUTO 12008KT 10SM CLR 25/18 A2997 RMK AO2 SLP146 T02500183
KMKT 182356Z AUTO 13007KT 10SM CLR 26/18 A2998 RMK AO2 SLP151 T02610183 10272 20256 56014
KMKT 182256Z AUTO 13007KT 10SM CLR 27/18 A2999 RMK AO2 SLP154 T02670178
KMKT 182156Z AUTO 11005KT 10SM CLR 27/18 A3001 RMK AO2 SLP159 T02670178
KMKT 182056Z AUTO 14007KT 10SM FEW035 27/18 A3003 RMK AO2 SLP166 T02670183 57016
KMKT 181956Z AUTO VRB06KT 10SM FEW065 27/19 A3005 RMK AO2 SLP171 T02670189
KMKT 181856Z AUTO 10007KT 10SM CLR 27/18 A3006 RMK AO2 SLP175 T02670183
KMKT 181756Z AUTO 17006KT 10SM SCT080 26/18 A3008 RMK AO2 SLP182 T02560178 10256 20172 56008
KMKT 181656Z AUTO 15007KT 10SM CLR 26/18 A3008 RMK AO2 SLP182 T02560178
KMKT 181556Z AUTO 15007KT 10SM CLR 25/18 A3009 RMK AO2 SLP186 T02500178
KMKT 181456Z AUTO 13006KT 10SM CLR 23/17 A3010 RMK AO2 SLP190 T02330167 58005
KMKT 181256Z AUTO 14008KT 6SM HZ BKN065 BKN075 19/16 A3012 RMK AO2 SLP195 T01940156
KMKT 181156Z AUTO 13005KT 10SM SCT070 17/15 A3012 RMK AO2 SLP197 7//// T01720150 10189 20156 58001
KMKT 181056Z AUTO 12004KT 10SM BKN070 17/14 A3012 RMK AO2 SLP198 T01670144
KMKT 180956Z AUTO 00000KT 10SM BKN070 16/14 A3013 RMK AO2 SLP199 T01610144